Time;durP1;ratioP1;P1;durP2;ratioP2;P2;SDS_P1;SDS_P2;PMS_P1;PMS_P2;Temp;Humidity;BMP_temperature;BMP_pressure;BME280_temperature;BME280_humidity;BME280_pressure;Samples;Min_cycle;Max_cycle;Signal;HPM_P1;HPM_P2
2022/05/14 00:01:42;;;;;;;4.42;3.58;;;;;;;12.31;81.33;95651.00;1786126;80;21058;-68
2022/05/14 00:04:10;;;;;;;4.40;2.90;;;;;;;12.17;80.80;95656.64;1786140;80;21513;-68
2022/05/14 00:06:37;;;;;;;4.42;4.03;;;;;;;12.09;81.23;95649.31;1785915;80;21043;-68
2022/05/14 00:09:05;;;;;;;5.00;4.50;;;;;;;12.04;81.96;95653.39;1785943;80;21014;-68
2022/05/14 00:14:21;;;;;;;3.55;3.02;;;;;;;12.01;81.73;95645.53;1786015;80;21007;-68
2022/05/14 00:16:48;;;;;;;7.25;2.92;;;;;;;11.98;81.59;95644.75;1785888;80;21030;-68
2022/05/14 00:19:15;;;;;;;6.22;4.42;;;;;;;11.96;82.31;95637.30;1786021;80;21050;-68
2022/05/14 00:21:43;;;;;;;5.83;2.92;;;;;;;11.97;82.52;95639.92;1785925;80;21536;-68
2022/05/14 00:24:10;;;;;;;4.03;2.80;;;;;;;11.94;82.05;95632.03;1785941;80;21007;-68
2022/05/14 00:26:39;;;;;;;5.05;2.72;;;;;;;11.95;82.80;95623.21;1786009;80;21046;-68
2022/05/14 00:29:07;;;;;;;4.80;3.00;;;;;;;11.97;82.27;95625.37;1786136;80;21003;-68
2022/05/14 00:31:35;;;;;;;4.87;4.00;;;;;;;11.99;82.84;95620.89;1785938;80;21489;-68
2022/05/14 00:34:01;;;;;;;5.40;3.55;;;;;;;12.02;82.58;95631.84;1786017;80;21011;-68
2022/05/14 00:36:28;;;;;;;4.00;3.00;;;;;;;12.05;82.56;95635.77;1785881;80;21026;-68
2022/05/14 00:38:55;;;;;;;4.42;3.25;;;;;;;12.06;82.57;95633.53;1785849;80;21018;-68
2022/05/14 00:41:21;;;;;;;4.17;2.90;;;;;;;12.04;82.11;95625.62;1786022;80;21026;-68
2022/05/14 00:43:57;;;;;;;4.28;3.15;;;;;;;12.03;82.08;95621.25;1785914;80;21500;-69
2022/05/14 00:46:44;;;;;;;6.85;4.30;;;;;;;12.01;82.45;95619.09;1786134;80;21045;-69
2022/05/14 00:49:13;;;;;;;4.50;3.75;;;;;;;11.93;82.66;95632.09;1786011;80;21500;-68
2022/05/14 00:51:43;;;;;;;4.60;4.08;;;;;;;11.96;82.85;95630.23;1785803;80;21011;-68
2022/05/14 00:54:14;;;;;;;7.03;4.20;;;;;;;11.97;82.53;95633.31;1786115;80;20979;-68
2022/05/14 00:56:49;;;;;;;6.80;5.75;;;;;;;11.92;82.77;95628.58;1755551;80;20963;-68
2022/05/14 00:59:21;;;;;;;7.10;5.83;;;;;;;11.92;82.52;95631.22;1784784;80;21062;-68
2022/05/14 01:01:48;;;;;;;5.80;5.30;;;;;;;11.88;82.23;95629.08;1786030;80;21485;-68
2022/05/14 01:04:17;;;;;;;6.97;5.30;;;;;;;11.85;83.08;95630.45;1785989;80;20979;-68
2022/05/14 01:06:49;;;;;;;4.72;3.77;;;;;;;11.82;82.84;95623.05;1785969;80;21032;-68
2022/05/14 01:09:16;;;;;;;3.45;3.02;;;;;;;11.81;83.13;95623.94;1785134;80;21062;-68
2022/05/14 01:11:43;;;;;;;4.22;3.22;;;;;;;11.78;83.88;95622.23;1785913;80;21044;-68
2022/05/14 01:14:09;;;;;;;8.75;5.80;;;;;;;11.69;83.99;95630.36;1786062;80;21007;-69
2022/05/14 01:16:37;;;;;;;13.05;9.75;;;;;;;11.63;83.32;95634.02;1785971;80;21071;-68
2022/05/14 01:19:05;;;;;;;13.30;9.53;;;;;;;11.64;83.47;95625.63;1785946;80;21536;-69
2022/05/14 01:22:05;;;;;;;19.52;13.30;;;;;;;11.64;83.52;95627.84;1785883;80;21062;-68
2022/05/14 01:27:31;;;;;;;11.15;8.18;;;;;;;11.61;84.17;95627.89;1786029;80;21054;-68
2022/05/14 01:29:58;;;;;;;9.80;6.45;;;;;;;11.64;84.17;95630.92;1785938;80;21031;-68
2022/05/14 01:32:24;;;;;;;9.50;6.35;;;;;;;11.64;83.62;95622.99;1755277;80;20990;-68
2022/05/14 01:34:51;;;;;;;6.40;4.22;;;;;;;11.62;83.92;95631.44;1786185;80;21014;-68
2022/05/14 01:37:20;;;;;;;4.28;3.33;;;;;;;11.68;83.98;95633.47;1785955;80;21552;-68
2022/05/14 01:39:48;;;;;;;4.62;3.25;;;;;;;11.78;83.52;95635.91;1786731;80;21121;-68
2022/05/14 01:42:14;;;;;;;4.30;3.10;;;;;;;11.75;83.69;95634.67;1791357;80;21043;-68
2022/05/14 01:44:43;;;;;;;3.87;3.58;;;;;;;11.73;83.77;95638.66;1791499;80;21057;-68
2022/05/14 01:47:11;;;;;;;6.83;4.53;;;;;;;11.73;83.62;95632.51;1791488;79;21488;-68
2022/05/14 01:49:38;;;;;;;6.67;4.60;;;;;;;11.77;83.52;95636.80;1791475;79;21078;-68
2022/05/14 01:52:05;;;;;;;5.03;3.87;;;;;;;11.77;82.88;95635.48;1791512;80;21022;-69
2022/05/14 01:54:32;;;;;;;5.75;3.40;;;;;;;11.80;83.30;95641.58;1791417;80;21007;-68
2022/05/14 01:57:00;;;;;;;4.60;2.98;;;;;;;11.79;82.78;95639.86;1791635;79;20955;-69
2022/05/14 01:59:26;;;;;;;4.92;2.90;;;;;;;11.84;82.95;95642.38;1791596;80;21014;-69
2022/05/14 02:01:53;;;;;;;3.70;2.77;;;;;;;11.85;82.71;95645.45;1791366;80;21010;-68
2022/05/14 02:04:19;;;;;;;8.88;3.60;;;;;;;11.92;82.71;95645.77;1791575;80;21049;-68
2022/05/14 02:06:46;;;;;;;7.15;3.58;;;;;;;11.89;82.24;95644.48;1791425;80;21020;-68
2022/05/14 02:09:14;;;;;;;5.95;3.12;;;;;;;11.86;82.49;95649.82;1791500;80;21556;-68
2022/05/14 02:11:43;;;;;;;4.70;2.98;;;;;;;11.80;82.32;95647.33;1791607;80;21014;-68
2022/05/14 02:14:13;;;;;;;4.20;3.00;;;;;;;11.73;82.20;95650.55;1790886;80;21496;-68
2022/05/14 02:16:39;;;;;;;3.83;2.98;;;;;;;11.74;83.06;95655.38;1791556;80;21030;-68
2022/05/14 02:19:06;;;;;;;4.72;2.77;;;;;;;11.77;82.98;95651.34;1791583;80;21005;-68
2022/05/14 02:21:34;;;;;;;5.50;2.80;;;;;;;11.78;83.12;95647.35;1775832;80;21440;-68
2022/05/14 02:24:01;;;;;;;5.70;3.30;;;;;;;11.80;82.75;95649.52;1791487;79;21014;-68
2022/05/14 02:26:28;;;;;;;5.70;3.37;;;;;;;11.84;83.19;95643.27;1791664;80;21057;-68
2022/05/14 02:28:56;;;;;;;5.87;5.20;;;;;;;11.85;82.94;95639.70;1791396;80;21551;-69
2022/05/14 02:31:23;;;;;;;8.78;5.03;;;;;;;11.87;82.73;95640.58;1791235;80;21090;-68
2022/05/14 02:33:51;;;;;;;4.17;3.70;;;;;;;11.80;82.34;95640.72;1791564;80;20999;-68
2022/05/14 02:36:18;;;;;;;6.20;4.35;;;;;;;11.80;82.49;95649.52;1791148;80;21034;-68
2022/05/14 02:38:46;;;;;;;4.08;3.67;;;;;;;11.83;82.82;95640.19;1791472;80;21110;-68
2022/05/14 02:41:13;;;;;;;6.55;3.62;;;;;;;11.89;82.76;95636.13;1791221;80;21555;-68
2022/05/14 02:43:41;;;;;;;5.55;4.22;;;;;;;11.86;82.54;95640.14;1791354;80;21069;-68
2022/05/14 02:46:08;;;;;;;7.55;5.22;;;;;;;11.82;82.49;95645.07;1791459;80;21037;-68
2022/05/14 02:48:36;;;;;;;9.58;4.55;;;;;;;11.79;82.54;95644.25;1791551;80;21070;-68
2022/05/14 02:51:03;;;;;;;6.60;4.40;;;;;;;11.76;82.12;95649.61;1791290;80;21448;-68
2022/05/14 02:53:29;;;;;;;5.72;3.65;;;;;;;11.74;82.67;95649.63;1791640;80;21014;-68
2022/05/14 02:55:57;;;;;;;5.03;4.10;;;;;;;11.74;82.61;95646.12;1791501;80;20990;-68
2022/05/14 03:01:09;;;;;;;7.17;3.60;;;;;;;11.62;82.31;95654.76;1791628;80;20982;-68
2022/05/14 03:03:35;;;;;;;9.03;4.90;;;;;;;11.56;82.38;95660.61;1791409;80;21035;-68
2022/05/14 03:06:02;;;;;;;5.80;3.50;;;;;;;11.55;82.56;95657.11;1791342;80;21047;-69
2022/05/14 03:08:29;;;;;;;3.67;3.20;;;;;;;11.46;83.07;95653.33;1791641;80;21017;-68
2022/05/14 03:10:56;;;;;;;10.68;3.42;;;;;;;11.47;83.70;95657.73;1791413;80;20998;-68
2022/05/14 03:13:23;;;;;;;5.33;3.40;;;;;;;11.46;83.39;95655.55;1791631;80;20959;-68
2022/05/14 03:15:50;;;;;;;4.78;3.05;;;;;;;11.48;84.21;95656.36;1791561;80;20990;-69
2022/05/14 03:18:17;;;;;;;5.40;3.30;;;;;;;11.50;83.58;95661.63;1791472;80;21070;-68
2022/05/14 03:20:44;;;;;;;7.95;3.70;;;;;;;11.56;83.78;95655.33;1791570;80;20995;-68
2022/05/14 03:23:11;;;;;;;5.10;3.45;;;;;;;11.60;84.38;95663.16;1791679;79;20998;-68
2022/05/14 03:25:38;;;;;;;4.42;3.00;;;;;;;11.67;84.23;95666.09;1791566;80;21481;-68
2022/05/14 03:28:05;;;;;;;6.40;3.05;;;;;;;11.81;84.87;95665.78;1791612;79;21007;-67
2022/05/14 03:30:32;;;;;;;4.62;3.10;;;;;;;11.91;84.27;95675.28;1791650;79;20990;-68
2022/05/14 03:32:59;;;;;;;4.55;3.20;;;;;;;12.06;84.07;95673.20;1791638;80;21002;-68
2022/05/14 03:35:27;;;;;;;5.03;2.98;;;;;;;12.20;83.77;95675.54;1791686;80;21010;-68
2022/05/14 03:37:54;;;;;;;6.37;3.47;;;;;;;12.36;83.62;95681.33;1791536;79;20935;-68
2022/05/14 03:40:20;;;;;;;5.35;3.50;;;;;;;12.46;83.50;95678.87;1791530;79;21030;-68
2022/05/14 03:42:47;;;;;;;5.67;3.72;;;;;;;12.66;83.38;95673.08;1791334;80;21144;-68
2022/05/14 03:45:14;;;;;;;5.97;3.50;;;;;;;12.80;83.16;95677.58;1791587;80;21003;-68
2022/05/14 03:47:40;;;;;;;6.87;3.77;;;;;;;12.84;82.52;95671.27;1791510;79;20975;-68
2022/05/14 03:50:07;;;;;;;4.90;3.87;;;;;;;12.85;82.42;95670.38;1791695;80;21007;-69
2022/05/14 03:52:34;;;;;;;4.03;3.60;;;;;;;13.01;82.74;95676.59;1791469;80;20999;-68
2022/05/14 03:55:01;;;;;;;4.62;3.90;;;;;;;13.06;82.36;95681.31;1762994;80;21002;-69
2022/05/14 03:57:27;;;;;;;7.30;4.62;;;;;;;13.15;82.30;95682.36;1791768;80;21070;-68
2022/05/14 03:59:54;;;;;;;5.35;4.85;;;;;;;13.25;81.66;95678.55;1791400;80;21524;-69
2022/05/14 04:02:21;;;;;;;6.17;5.45;;;;;;;13.40;81.96;95680.80;1791556;80;21058;-68
2022/05/14 04:04:48;;;;;;;7.50;5.83;;;;;;;13.56;81.55;95685.70;1791610;79;21448;-68
2022/05/14 04:07:15;;;;;;;6.47;5.80;;;;;;;13.69;81.36;95684.41;1762670;80;21034;-68
2022/05/14 04:09:42;;;;;;;7.72;6.22;;;;;;;13.74;80.52;95694.43;1791412;80;21500;-68
2022/05/14 04:12:09;;;;;;;6.83;5.30;;;;;;;13.76;79.89;95695.72;1791671;80;21010;-68
2022/05/14 04:14:36;;;;;;;5.90;5.10;;;;;;;13.80;79.89;95692.05;1791486;80;21022;-68
2022/05/14 04:17:03;;;;;;;6.15;4.45;;;;;;;13.89;80.01;95697.55;1791566;79;20995;-68
2022/05/14 04:19:30;;;;;;;5.08;4.58;;;;;;;13.87;79.36;95697.59;1791671;79;21053;-68
2022/05/14 04:21:57;;;;;;;6.97;5.28;;;;;;;13.91;79.82;95696.59;1791361;79;21030;-68
2022/05/14 04:24:23;;;;;;;11.97;4.80;;;;;;;13.96;79.75;95692.45;1791552;79;21019;-68
2022/05/14 04:26:50;;;;;;;5.92;4.95;;;;;;;13.96;79.61;95688.03;1791709;79;21010;-68
2022/05/14 04:29:17;;;;;;;5.28;4.40;;;;;;;13.95;79.78;95696.89;1791460;80;21058;-69
2022/05/14 04:31:43;;;;;;;7.83;4.70;;;;;;;13.98;79.88;95690.16;1791596;79;21030;-69
2022/05/14 04:34:11;;;;;;;5.87;4.60;;;;;;;13.98;80.03;95691.95;1791544;79;21011;-69
2022/05/14 04:36:38;;;;;;;7.55;5.20;;;;;;;14.03;80.19;95692.67;1791396;80;21014;-69
2022/05/14 04:39:05;;;;;;;7.20;5.35;;;;;;;14.11;80.13;95691.11;1785187;80;21465;-68
2022/05/14 04:41:33;;;;;;;5.72;4.97;;;;;;;14.15;80.21;95688.79;1788470;79;21042;-68
2022/05/14 04:44:01;;;;;;;8.10;6.20;;;;;;;14.20;80.01;95696.14;1785949;80;21019;-68
2022/05/14 04:46:28;;;;;;;7.67;6.03;;;;;;;14.27;79.96;95692.39;1786126;80;21010;-68
2022/05/14 04:48:56;;;;;;;9.48;5.53;;;;;;;14.33;79.85;95700.14;1785880;80;21046;-69
2022/05/14 04:51:23;;;;;;;7.00;5.17;;;;;;;14.36;79.53;95686.77;1785731;80;21522;-68
2022/05/14 04:53:50;;;;;;;5.65;4.55;;;;;;;14.44;79.45;95693.19;1785962;80;21015;-68
2022/05/14 04:56:16;;;;;;;7.92;4.92;;;;;;;14.59;79.76;95691.40;1786007;80;21030;-68
2022/05/14 04:58:44;;;;;;;11.12;7.08;;;;;;;14.74;79.63;95699.75;1785983;80;21500;-68
2022/05/14 05:01:11;;;;;;;8.88;6.70;;;;;;;14.82;78.94;95691.09;1786010;80;20959;-68
2022/05/14 05:03:38;;;;;;;8.13;7.15;;;;;;;14.90;78.44;95693.89;1785974;80;21527;-68
2022/05/14 05:06:05;;;;;;;6.62;5.92;;;;;;;15.02;78.53;95699.25;1785987;80;21022;-69
2022/05/14 05:08:34;;;;;;;8.18;6.72;;;;;;;15.21;78.12;95694.62;1785854;80;21023;-69
2022/05/14 05:11:01;;;;;;;9.93;5.53;;;;;;;15.32;77.51;95694.66;1785884;80;21054;-69
2022/05/14 05:13:30;;;;;;;6.00;5.30;;;;;;;15.44;77.23;95698.64;1785840;80;21035;-69
2022/05/14 05:15:57;;;;;;;7.22;5.42;;;;;;;15.53;76.96;95701.45;1786117;80;20964;-68
2022/05/14 05:18:24;;;;;;;7.12;5.33;;;;;;;15.62;76.53;95694.91;1785827;80;21018;-68
2022/05/14 05:20:52;;;;;;;6.67;5.10;;;;;;;15.69;76.39;95695.09;1786098;80;21002;-68
2022/05/14 05:23:22;;;;;;;7.10;4.60;;;;;;;15.78;76.38;95693.47;1755538;80;21030;-68
2022/05/14 05:25:49;;;;;;;5.70;4.72;;;;;;;15.85;75.48;95696.31;1785883;80;21063;-68
2022/05/14 05:28:16;;;;;;;13.18;4.47;;;;;;;15.91;75.48;95696.06;1786061;80;21011;-68
2022/05/14 05:30:43;;;;;;;8.55;4.97;;;;;;;16.02;75.82;95696.98;1786051;80;21054;-68
2022/05/14 05:33:14;;;;;;;7.70;4.10;;;;;;;16.19;75.77;95699.86;1785769;80;21534;-68
2022/05/14 05:35:42;;;;;;;7.45;4.80;;;;;;;16.35;75.80;95693.45;1786101;80;21003;-68
2022/05/14 05:38:09;;;;;;;9.65;4.60;;;;;;;16.47;75.23;95700.58;1785785;80;21492;-69
2022/05/14 05:40:36;;;;;;;7.00;4.90;;;;;;;16.68;74.52;95697.50;1786227;80;20999;-70
2022/05/14 05:43:05;;;;;;;5.45;4.28;;;;;;;16.68;74.52;95697.50;1791594;80;20979;-69
2022/05/14 05:45:32;;;;;;;6.85;4.75;;;;;;;16.79;74.35;95698.84;1791336;80;21019;-69
2022/05/14 05:47:59;;;;;;;6.17;4.12;;;;;;;16.87;74.59;95693.19;1791470;80;21018;-69
2022/05/14 05:50:26;;;;;;;5.60;4.28;;;;;;;17.01;74.49;95700.59;1791586;79;21484;-69
2022/05/14 05:52:54;;;;;;;4.40;4.00;;;;;;;17.09;74.41;95697.16;1791171;80;21015;-69
2022/05/14 05:58:07;;;;;;;6.45;4.22;;;;;;;17.36;74.62;95717.78;1791538;79;20955;-68
2022/05/14 06:00:35;;;;;;;7.30;4.95;;;;;;;17.58;74.14;95713.68;1791469;79;21054;-68
2022/05/14 06:03:02;;;;;;;5.95;4.55;;;;;;;17.76;73.51;95712.46;1791577;79;21503;-68
2022/05/14 06:05:29;;;;;;;6.92;5.10;;;;;;;17.97;73.40;95715.98;1791616;80;21508;-68
2022/05/14 06:07:55;;;;;;;5.15;4.60;;;;;;;18.11;71.01;95714.42;1791348;80;20987;-68
2022/05/14 06:10:24;;;;;;;6.92;4.50;;;;;;;18.23;71.13;95722.34;1791576;80;21050;-68
2022/05/14 06:12:50;;;;;;;4.70;4.28;;;;;;;18.29;71.51;95716.70;1791488;80;20991;-68
2022/05/14 06:15:19;;;;;;;6.72;4.45;;;;;;;18.28;71.01;95718.13;1791309;80;21025;-68
2022/05/14 06:17:46;;;;;;;5.22;4.65;;;;;;;18.24;70.26;95713.38;1791595;80;21476;-69
2022/05/14 06:20:15;;;;;;;6.55;4.42;;;;;;;18.23;70.11;95719.67;1791458;80;21010;-70
2022/05/14 06:22:43;;;;;;;9.25;6.83;;;;;;;18.24;70.69;95709.84;1791433;80;21019;-69
2022/05/14 06:25:12;;;;;;;5.25;4.50;;;;;;;18.26;70.90;95710.17;1791567;80;21007;-69
2022/05/14 06:27:38;;;;;;;6.30;4.53;;;;;;;18.30;69.75;95709.57;1791336;80;21043;-69
2022/05/14 06:30:07;;;;;;;7.65;4.33;;;;;;;18.36;69.35;95712.80;1791501;79;20990;-69
2022/05/14 06:32:33;;;;;;;5.03;4.40;;;;;;;18.35;69.54;95708.89;1762881;80;21521;-68
2022/05/14 06:35:00;;;;;;;8.00;4.22;;;;;;;18.43;69.76;95713.39;1791374;80;21034;-68
2022/05/14 06:37:26;;;;;;;6.62;4.35;;;;;;;18.47;68.71;95706.97;1791355;80;21083;-68
2022/05/14 06:39:53;;;;;;;4.87;4.03;;;;;;;18.58;68.46;95709.12;1791487;80;21501;-68
2022/05/14 06:42:20;;;;;;;6.30;4.65;;;;;;;18.64;68.15;95710.14;1791330;80;21046;-68
2022/05/14 06:44:47;;;;;;;5.22;4.40;;;;;;;18.71;68.16;95708.05;1791457;80;21062;-68
2022/05/14 06:47:14;;;;;;;6.83;4.90;;;;;;;18.81;68.16;95706.69;1791422;80;21106;-68
2022/05/14 06:49:40;;;;;;;6.87;4.22;;;;;;;18.95;67.17;95704.21;1791246;80;21553;-68
2022/05/14 06:52:11;;;;;;;7.28;5.00;;;;;;;19.05;66.65;95700.61;1791464;80;21041;-69
2022/05/14 06:54:42;;;;;;;5.95;4.37;;;;;;;19.16;66.20;95714.29;1791668;80;21026;-69
2022/05/14 06:57:09;;;;;;;5.80;4.75;;;;;;;19.26;66.26;95710.68;1762898;80;21085;-68
2022/05/14 06:59:36;;;;;;;7.33;4.72;;;;;;;19.37;66.12;95706.97;1791739;79;20975;-68
2022/05/14 07:02:03;;;;;;;5.28;4.72;;;;;;;19.46;65.19;95715.88;1791345;80;21133;-68
2022/05/14 07:07:17;;;;;;;5.62;4.20;;;;;;;19.53;64.10;95718.22;1791726;80;21011;-68
2022/05/14 07:09:44;;;;;;;6.08;4.95;;;;;;;19.40;63.03;95717.98;1791676;80;21014;-68
2022/05/14 07:12:12;;;;;;;7.12;4.90;;;;;;;19.43;64.85;95724.55;1791590;80;20986;-68
2022/05/14 07:14:44;;;;;;;6.00;5.40;;;;;;;19.36;64.08;95727.13;1791615;79;20979;-68
2022/05/14 07:17:11;;;;;;;7.70;5.45;;;;;;;19.36;63.98;95724.45;1791450;79;21022;-68
2022/05/14 07:19:39;;;;;;;6.47;4.72;;;;;;;19.38;63.37;95728.78;1791710;79;21003;-68
2022/05/14 07:22:07;;;;;;;5.10;4.60;;;;;;;19.41;62.99;95727.28;1791682;79;21018;-69
2022/05/14 07:24:33;;;;;;;5.47;4.83;;;;;;;19.49;63.36;95730.91;1791410;80;21002;-68
2022/05/14 07:27:03;;;;;;;8.03;4.42;;;;;;;19.64;63.44;95729.25;1791657;79;21464;-68
2022/05/14 07:29:31;;;;;;;6.75;5.00;;;;;;;19.67;62.39;95728.62;1791610;79;20979;-68
2022/05/14 07:31:58;;;;;;;8.25;6.53;;;;;;;19.79;62.93;95736.50;1791470;80;21520;-68
2022/05/14 07:34:25;;;;;;;10.72;6.60;;;;;;;19.73;62.03;95731.93;1791681;80;20975;-68
2022/05/14 07:37:22;;;;;;;10.88;7.92;;;;;;;19.72;62.04;95739.11;1791718;79;21488;-68
2022/05/14 07:39:59;;;;;;;12.35;7.85;;;;;;;19.70;62.12;95736.12;1791609;80;21073;-68
2022/05/14 07:42:59;;;;;;;10.25;7.42;;;;;;;19.78;62.14;95733.45;1791663;79;20987;-68
2022/05/14 07:45:32;;;;;;;7.90;6.03;;;;;;;19.86;61.85;95736.58;1791506;80;21058;-68
2022/05/14 07:48:07;;;;;;;6.58;5.83;;;;;;;19.89;60.94;95733.73;1791771;79;20998;-69
2022/05/14 07:50:35;;;;;;;8.23;5.70;;;;;;;20.00;60.97;95737.64;1791717;79;21022;-68
2022/05/14 07:53:03;;;;;;;6.03;5.30;;;;;;;20.04;60.09;95747.27;1791358;80;20975;-68
2022/05/14 07:55:29;;;;;;;12.47;5.87;;;;;;;19.90;61.50;95751.99;1791712;79;21483;-68
2022/05/14 07:57:56;;;;;;;9.60;6.15;;;;;;;19.92;61.69;95757.28;1791743;80;20971;-68
2022/05/14 08:00:23;;;;;;;12.60;7.17;;;;;;;19.92;60.14;95755.46;1791580;80;21019;-67
2022/05/14 08:02:50;;;;;;;6.78;6.05;;;;;;;19.88;60.58;95759.23;1791573;79;21027;-68
2022/05/14 08:05:20;;;;;;;6.67;6.08;;;;;;;19.89;59.90;95751.61;1791532;80;21014;-68
2022/05/14 08:07:48;;;;;;;6.37;5.78;;;;;;;20.01;60.82;95756.33;1791610;80;21034;-68
2022/05/14 08:10:16;;;;;;;6.78;6.15;;;;;;;20.03;59.41;95750.86;1791565;80;20974;-68
2022/05/14 08:12:47;;;;;;;9.00;5.47;;;;;;;20.21;59.38;95755.70;1791411;79;21063;-68
2022/05/14 08:15:16;;;;;;;6.22;5.62;;;;;;;20.27;58.13;95758.07;1791706;79;21018;-68
2022/05/14 08:17:44;;;;;;;6.90;5.97;;;;;;;20.46;58.35;95753.89;1791567;79;21011;-68
2022/05/14 08:20:13;;;;;;;9.55;5.80;;;;;;;20.52;58.27;95753.58;1791457;80;21441;-68
2022/05/14 08:25:26;;;;;;;8.05;6.92;;;;;;;20.68;56.78;95747.77;1791688;80;20975;-68
2022/05/14 08:27:53;;;;;;;7.20;6.03;;;;;;;20.76;56.72;95752.70;1791636;79;21011;-68
2022/05/14 08:30:28;;;;;;;8.00;5.85;;;;;;;20.62;56.73;95765.55;1791665;80;21014;-68
2022/05/14 08:32:54;;;;;;;9.73;6.15;;;;;;;20.59;56.86;95767.06;1791580;80;21023;-68
2022/05/14 08:35:22;;;;;;;6.03;5.50;;;;;;;20.55;56.60;95764.16;1791506;80;21488;-68
2022/05/14 08:37:51;;;;;;;9.15;5.70;;;;;;;20.58;55.15;95765.80;1791524;79;21069;-68
2022/05/14 08:40:23;;;;;;;5.67;5.17;;;;;;;20.57;55.68;95766.28;1791560;80;21157;-67
2022/05/14 08:42:55;;;;;;;6.55;5.10;;;;;;;20.60;55.99;95767.44;1787909;80;21027;-68
2022/05/14 08:45:26;;;;;;;8.28;5.15;;;;;;;20.64;55.17;95763.66;1784098;80;20999;-68
2022/05/14 08:47:59;;;;;;;5.30;4.80;;;;;;;20.68;56.21;95762.99;1785779;80;21315;-68
2022/05/14 08:50:35;;;;;;;9.80;5.90;;;;;;;20.82;57.45;95768.94;1786139;80;21050;-68
2022/05/14 08:53:08;;;;;;;6.17;5.60;;;;;;;20.94;55.75;95762.86;1786012;80;21034;-68
2022/05/14 08:55:49;;;;;;;6.15;5.00;;;;;;;20.98;55.38;95766.25;1786090;80;20992;-68
2022/05/14 08:59:07;;;;;;;4.97;4.47;;;;;;;21.04;54.27;95773.93;1786262;80;21497;-68
2022/05/14 09:01:38;;;;;;;5.95;4.47;;;;;;;21.15;54.39;95765.66;1786007;80;20975;-68
2022/05/14 09:04:08;;;;;;;9.05;4.37;;;;;;;21.33;53.47;95765.55;1786156;80;21038;-68
2022/05/14 09:06:38;;;;;;;5.03;4.50;;;;;;;21.51;54.19;95764.50;1786008;80;21007;-68
2022/05/14 09:09:06;;;;;;;5.80;4.97;;;;;;;21.57;50.69;95757.44;1785703;80;21556;-68
2022/05/14 09:11:46;;;;;;;6.45;5.03;;;;;;;21.63;52.16;95757.55;1786090;80;20995;-68
2022/05/14 09:14:30;;;;;;;6.42;4.83;;;;;;;21.57;52.98;95768.63;1786218;80;21058;-68
2022/05/14 09:17:20;;;;;;;5.22;4.42;;;;;;;21.71;51.35;95758.42;1785958;80;21015;-68
2022/05/14 09:19:45;;;;;;;4.30;3.90;;;;;;;21.80;50.99;95769.48;1786151;80;21023;-68
2022/05/14 09:22:37;;;;;;;5.33;4.25;;;;;;;21.91;49.14;95772.00;1786148;80;20983;-68
2022/05/14 09:25:17;;;;;;;5.85;4.53;;;;;;;21.92;48.45;95767.86;1786054;80;20995;-68
2022/05/14 09:27:50;;;;;;;6.17;4.22;;;;;;;21.71;47.60;95769.17;1785641;80;21030;-68
2022/05/14 09:30:31;;;;;;;6.92;4.40;;;;;;;21.77;48.40;95767.44;1785934;80;21544;-68
2022/05/14 09:32:59;;;;;;;6.17;4.60;;;;;;;21.88;50.14;95760.96;1786001;80;21053;-68
2022/05/14 09:35:30;;;;;;;5.92;4.65;;;;;;;22.09;48.82;95762.80;1786221;80;20971;-68
2022/05/14 09:38:14;;;;;;;8.53;5.40;;;;;;;22.07;48.03;95766.06;1785930;80;21493;-68
2022/05/14 09:40:40;;;;;;;6.60;4.70;;;;;;;22.13;46.26;95766.19;1784296;80;20955;-68
2022/05/14 09:43:18;;;;;;;6.37;4.67;;;;;;;22.16;45.77;95760.62;1789554;80;21058;-68
2022/05/14 09:46:02;;;;;;;5.80;5.10;;;;;;;22.11;46.20;95764.06;1791614;80;20993;-68
2022/05/14 09:48:51;;;;;;;5.72;4.95;;;;;;;22.20;47.72;95760.38;1791513;80;21070;-68
2022/05/14 09:51:36;;;;;;;7.60;5.62;;;;;;;22.35;47.97;95753.63;1791369;80;21006;-68
2022/05/14 09:54:21;;;;;;;8.08;6.33;;;;;;;22.45;47.69;95761.50;1791388;80;21022;-67
2022/05/14 09:57:08;;;;;;;10.23;7.67;;;;;;;22.60;47.96;95759.22;1791635;80;21026;-68
2022/05/14 10:00:01;;;;;;;6.03;5.00;;;;;;;22.73;46.98;95758.41;1791551;80;21469;-68
2022/05/14 10:02:42;;;;;;;7.12;4.67;;;;;;;22.80;46.00;95768.67;1791650;80;20990;-68
2022/05/14 10:05:35;;;;;;;7.62;6.20;;;;;;;22.88;46.71;95763.69;1791447;80;21480;-69
2022/05/14 10:08:58;;;;;;;6.97;4.78;;;;;;;22.95;46.08;95756.55;1791556;80;20995;-68
2022/05/14 10:11:44;;;;;;;7.20;5.00;;;;;;;23.03;45.79;95758.28;1791864;80;21022;-68
2022/05/14 10:14:14;;;;;;;;;;;;;;;22.98;45.64;95757.72;1794245;80;21084;-68
2022/05/14 10:17:18;;;;;;;6.58;4.90;;;;;;;22.99;46.38;95754.94;1791747;80;20096;-68
2022/05/14 10:20:07;;;;;;;5.83;4.72;;;;;;;23.11;46.24;95751.94;1791428;80;21039;-68
2022/05/14 10:29:36;;;;;;;4.53;4.00;;;;;;;23.47;43.42;95747.75;1791700;80;20975;-68
2022/05/14 10:32:11;;;;;;;6.00;4.05;;;;;;;23.66;43.42;95750.05;1791514;80;20994;-67
2022/05/14 10:34:55;;;;;;;6.12;4.10;;;;;;;23.81;42.91;95751.72;1791725;80;20986;-68
2022/05/14 10:37:45;;;;;;;7.47;4.30;;;;;;;23.83;42.08;95748.94;1791721;80;21010;-66
2022/05/14 10:40:33;;;;;;;4.50;4.10;;;;;;;23.84;43.04;95752.00;1791259;80;21536;-68
2022/05/14 10:43:15;;;;;;;5.33;4.83;;;;;;;23.96;43.61;95745.31;1788846;80;21050;-68
2022/05/14 10:45:46;;;;;;;6.35;3.80;;;;;;;23.98;41.90;95733.05;1778495;80;21054;-67
2022/05/14 10:48:39;;;;;;;7.10;3.83;;;;;;;23.91;41.33;95738.48;1785933;80;21045;-68
2022/05/14 10:51:10;;;;;;;5.55;5.05;;;;;;;24.02;43.26;95733.72;1784462;80;21082;-67
2022/05/14 10:53:40;;;;;;;8.58;5.35;;;;;;;24.00;40.77;95741.05;1785854;80;20998;-67
2022/05/14 10:56:33;;;;;;;5.08;4.42;;;;;;;24.11;41.48;95734.41;1785604;80;21030;-67
2022/05/14 10:59:11;;;;;;;6.55;4.00;;;;;;;23.96;40.53;95742.61;1786173;80;20955;-68
2022/05/14 11:01:47;;;;;;;8.88;4.03;;;;;;;23.57;40.53;95743.47;1785621;80;21034;-67
2022/05/14 11:04:27;;;;;;;4.78;4.30;;;;;;;23.29;41.57;95741.77;1786045;80;21496;-67
2022/05/14 11:07:01;;;;;;;7.10;3.58;;;;;;;23.48;40.46;95738.20;1785831;80;21023;-68
2022/05/14 11:09:45;;;;;;;7.92;3.77;;;;;;;23.47;42.24;95736.98;1755457;80;21003;-66
2022/05/14 11:12:23;;;;;;;8.93;5.10;;;;;;;23.64;42.81;95737.19;1785948;80;20983;-67
2022/05/14 11:14:58;;;;;;;3.75;3.27;;;;;;;23.62;41.89;95740.47;1785667;80;20999;-68
2022/05/14 11:17:34;;;;;;;13.80;4.10;;;;;;;23.29;41.72;95731.00;1785954;80;20995;-67
2022/05/14 11:20:09;;;;;;;9.05;3.52;;;;;;;23.03;42.90;95733.60;1785925;80;21026;-67
2022/05/14 11:22:49;;;;;;;6.28;3.62;;;;;;;22.90;43.66;95736.66;1785870;80;21074;-67
2022/05/14 11:25:24;;;;;;;3.45;3.15;;;;;;;23.19;42.33;95733.44;1784038;80;21066;-67
2022/05/14 11:28:19;;;;;;;3.52;3.22;;;;;;;23.23;42.00;95732.74;1786119;80;20980;-67
2022/05/14 11:30:51;;;;;;;5.90;3.70;;;;;;;23.02;42.26;95730.52;1785668;80;21493;-67
2022/05/14 11:33:31;;;;;;;5.00;3.58;;;;;;;22.77;42.42;95729.87;1785973;80;21047;-67
2022/05/14 11:36:06;;;;;;;6.25;3.45;;;;;;;23.03;43.46;95728.22;1785639;80;21050;-67
2022/05/14 11:38:40;;;;;;;6.78;3.33;;;;;;;23.28;43.22;95721.19;1748436;80;21003;-67
2022/05/14 11:41:15;;;;;;;7.12;3.52;;;;;;;23.57;41.39;95726.45;1785878;80;21047;-67
2022/05/14 11:43:48;;;;;;;4.72;3.33;;;;;;;23.57;40.80;95721.06;1783988;80;21032;-67
2022/05/14 11:46:35;;;;;;;;;;;;;;;23.86;41.54;95718.59;1788735;80;21018;-67
2022/05/14 11:49:25;;;;;;;6.65;3.20;;;;;;;24.27;40.35;95720.73;1775567;80;20108;-67
2022/05/14 11:52:00;;;;;;;6.70;3.30;;;;;;;24.76;40.10;95722.11;1786154;80;21450;-67
2022/05/14 11:54:57;;;;;;;12.47;3.20;;;;;;;25.18;39.04;95713.71;1784620;80;21011;-67
2022/05/14 11:57:37;;;;;;;7.45;3.02;;;;;;;25.68;37.51;95718.47;1786135;80;20983;-67
2022/05/14 12:00:15;;;;;;;3.62;2.45;;;;;;;26.08;36.98;95714.03;1786148;80;21011;-67
2022/05/14 12:03:14;;;;;;;3.45;2.55;;;;;;;26.66;36.91;95708.56;1786225;80;21062;-67
2022/05/14 12:05:52;;;;;;;6.92;2.70;;;;;;;27.14;35.70;95715.90;1786037;80;21434;-67
2022/05/14 12:08:59;;;;;;;3.72;2.30;;;;;;;27.61;33.50;95711.56;1785820;80;21035;-68
2022/05/14 12:11:45;;;;;;;5.87;3.55;;;;;;;27.96;33.65;95701.80;1756384;80;21046;-68
2022/05/14 12:14:19;;;;;;;4.60;3.10;;;;;;;28.34;32.38;95692.68;1786054;80;20976;-68
2022/05/14 12:16:53;;;;;;;6.30;2.65;;;;;;;28.54;30.96;95690.95;1784341;80;20995;-68
2022/05/14 12:19:30;;;;;;;4.15;2.35;;;;;;;28.41;30.19;95702.00;1786100;80;21003;-68